Time;durP1;ratioP1;P1;durP2;ratioP2;P2;SDS_P1;SDS_P2;PMS_P1;PMS_P2;Temp;Humidity;BMP_temperature;BMP_pressure;BME280_temperature;BME280_humidity;BME280_pressure;Samples;Min_cycle;Max_cycle;Signal;HPM_P1;HPM_P2
2021/10/08 00:01:53;;;;;;;3.95;3.72;;;;;;;2.80;79.23;102566.03;4882262;29;20591;-82
2021/10/08 00:04:19;;;;;;;10.05;6.43;;;;;;;2.53;79.82;102568.91;4883906;29;20067;-81
2021/10/08 00:06:46;;;;;;;4.43;4.22;;;;;;;2.27;80.62;102564.88;4867160;29;20060;-81
2021/10/08 00:09:12;;;;;;;3.38;3.28;;;;;;;2.49;80.72;102574.81;4866157;29;20052;-82
2021/10/08 00:11:38;;;;;;;11.40;3.80;;;;;;;2.44;80.29;102573.88;4883392;29;20048;-81
2021/10/08 00:14:04;;;;;;;6.40;5.82;;;;;;;2.33;81.22;102589.09;4851675;29;20060;-82
2021/10/08 00:16:30;;;;;;;12.18;5.07;;;;;;;2.25;81.13;102579.44;4880667;29;20061;-80
2021/10/08 00:18:56;;;;;;;4.55;4.35;;;;;;;2.14;81.28;102575.75;4862498;29;20117;-82
2021/10/08 00:21:22;;;;;;;6.28;5.72;;;;;;;1.89;82.02;102579.44;4865168;29;20104;-82
2021/10/08 00:23:48;;;;;;;3.97;3.78;;;;;;;1.87;83.22;102576.81;4865516;29;20053;-82
2021/10/08 00:26:14;;;;;;;4.55;4.43;;;;;;;1.95;83.05;102579.59;4865313;29;20595;-81
2021/10/08 00:28:40;;;;;;;3.38;3.28;;;;;;;2.22;82.25;102574.22;4846637;29;20084;-82
2021/10/08 00:31:06;;;;;;;5.80;5.30;;;;;;;2.32;81.65;102576.19;4863551;29;20077;-82
2021/10/08 00:33:32;;;;;;;7.65;4.70;;;;;;;2.24;82.00;102577.69;4847907;29;20049;-82
2021/10/08 00:35:58;;;;;;;3.72;3.53;;;;;;;2.12;81.98;102564.53;4833038;29;20615;-82
2021/10/08 00:38:24;;;;;;;6.55;6.05;;;;;;;2.07;81.99;102569.56;4849561;29;20061;-81
2021/10/08 00:40:50;;;;;;;4.60;3.75;;;;;;;1.83;82.49;102575.00;4849729;29;20048;-81
2021/10/08 00:43:18;;;;;;;6.65;6.00;;;;;;;1.66;83.64;102573.72;4833600;29;20057;-81
2021/10/08 00:45:44;;;;;;;5.03;4.80;;;;;;;1.57;84.23;102582.06;4864463;29;20075;-80
2021/10/08 00:48:10;;;;;;;3.97;3.78;;;;;;;1.54;84.24;102582.00;4851275;29;20060;-81
2021/10/08 00:50:41;;;;;;;3.63;3.42;;;;;;;1.53;84.66;102585.44;4850883;29;20061;-80
2021/10/08 00:53:07;;;;;;;3.30;3.10;;;;;;;1.62;85.05;102576.19;4868001;29;20062;-81
2021/10/08 00:55:34;;;;;;;3.20;3.10;;;;;;;1.75;84.41;102579.09;4869033;29;20054;-79
2021/10/08 00:58:00;;;;;;;4.68;4.47;;;;;;;1.76;83.63;102583.44;4866427;29;20056;-80
2021/10/08 01:00:26;;;;;;;2.95;2.83;;;;;;;1.86;83.50;102580.25;4863152;29;20049;-80
2021/10/08 01:02:52;;;;;;;3.95;3.70;;;;;;;1.84;83.13;102579.31;4863820;29;20068;-81
2021/10/08 01:05:18;;;;;;;8.57;5.60;;;;;;;1.77;83.39;102580.00;4846334;29;20523;-81
2021/10/08 01:07:44;;;;;;;3.00;2.90;;;;;;;1.48;83.58;102589.56;4831056;29;20086;-82
2021/10/08 01:10:10;;;;;;;5.50;4.25;;;;;;;1.42;84.83;102585.97;4830684;29;20065;-81
2021/10/08 01:12:38;;;;;;;5.85;5.30;;;;;;;1.44;84.92;102589.47;4846522;29;20046;-81
2021/10/08 01:15:04;;;;;;;4.22;4.03;;;;;;;1.25;84.94;102582.94;4815835;29;20088;-81
2021/10/08 01:17:31;;;;;;;4.80;4.32;;;;;;;1.09;85.37;102579.91;4830943;29;20189;-80
2021/10/08 01:20:02;;;;;;;4.22;3.90;;;;;;;1.08;86.28;102584.16;4844778;29;20117;-80
2021/10/08 01:22:30;;;;;;;4.70;4.45;;;;;;;1.11;86.78;102589.44;4846311;29;20524;-80
2021/10/08 01:24:56;;;;;;;5.28;4.97;;;;;;;0.97;87.00;102601.91;4863079;29;20053;-80
2021/10/08 01:27:22;;;;;;;3.47;3.38;;;;;;;0.89;87.43;102598.22;4871611;29;20048;-81
2021/10/08 01:29:51;;;;;;;4.10;3.90;;;;;;;0.83;88.25;102595.47;4865987;29;20052;-79
2021/10/08 01:32:20;;;;;;;4.38;4.18;;;;;;;0.68;88.58;102602.75;4863277;29;20052;-80
2021/10/08 01:34:46;;;;;;;4.10;3.70;;;;;;;0.77;88.88;102604.72;4865690;29;20049;-80
2021/10/08 01:37:14;;;;;;;3.83;3.63;;;;;;;0.62;89.13;102597.44;4836127;29;20049;-81
2021/10/08 01:39:40;;;;;;;3.30;3.20;;;;;;;0.51;89.06;102601.38;4849656;29;20053;-81
2021/10/08 01:42:09;;;;;;;4.15;3.95;;;;;;;0.89;89.55;102605.94;4849350;29;20059;-80
2021/10/08 01:44:35;;;;;;;5.88;5.47;;;;;;;0.90;89.31;102604.25;4866802;29;20155;-81
2021/10/08 01:47:01;;;;;;;5.60;5.07;;;;;;;0.77;88.85;102603.00;4866579;29;20076;-82
2021/10/08 01:49:31;;;;;;;6.70;4.03;;;;;;;0.70;89.36;102598.50;4851366;29;20089;-80
2021/10/08 01:51:58;;;;;;;4.20;4.00;;;;;;;0.60;89.03;102598.19;4836761;29;20084;-81
2021/10/08 01:54:24;;;;;;;3.75;3.45;;;;;;;0.62;89.20;102587.16;4865415;29;20068;-79
2021/10/08 01:56:50;;;;;;;5.63;4.28;;;;;;;0.70;88.73;102600.22;4859380;29;20053;-79
2021/10/08 01:59:17;;;;;;;4.57;4.15;;;;;;;0.64;89.12;102595.78;4859831;29;20430;-81
2021/10/08 02:01:43;;;;;;;3.92;3.63;;;;;;;0.57;88.98;102587.81;4859498;29;20065;-80
2021/10/08 02:04:16;;;;;;;4.88;4.60;;;;;;;0.52;88.94;102595.41;4861172;29;20156;-79
2021/10/08 02:06:42;;;;;;;5.20;4.80;;;;;;;0.47;88.79;102586.69;4862872;29;20056;-81
2021/10/08 02:09:10;;;;;;;5.15;4.72;;;;;;;0.50;89.05;102586.75;4862813;29;20653;-81
2021/10/08 02:11:38;;;;;;;3.80;3.60;;;;;;;0.58;89.28;102585.31;4848935;29;20053;-83
2021/10/08 02:14:05;;;;;;;7.03;6.43;;;;;;;0.67;89.27;102585.56;4862818;29;20053;-81
2021/10/08 02:16:31;;;;;;;6.32;5.72;;;;;;;0.68;89.14;102584.75;4878900;29;20147;-80
2021/10/08 02:19:03;;;;;;;4.78;4.35;;;;;;;0.72;88.98;102593.44;4865113;29;20094;-79
2021/10/08 02:21:30;;;;;;;5.47;5.00;;;;;;;0.54;88.63;102583.47;4847440;29;20060;-81
2021/10/08 02:23:57;;;;;;;4.93;4.43;;;;;;;0.62;88.80;102582.00;4862589;29;20068;-81
2021/10/08 02:26:23;;;;;;;4.78;4.38;;;;;;;0.82;88.97;102580.03;4863051;29;20056;-81
2021/10/08 02:28:49;;;;;;;6.53;6.05;;;;;;;0.75;88.57;102586.69;4862950;29;20076;-81
2021/10/08 02:31:18;;;;;;;5.47;4.55;;;;;;;0.63;88.29;102582.84;4862877;29;20059;-82
2021/10/08 02:33:45;;;;;;;6.82;4.68;;;;;;;0.73;88.55;102580.59;4862545;29;20721;-78
2021/10/08 02:36:11;;;;;;;5.97;3.53;;;;;;;0.63;88.27;102583.72;4861984;29;20052;-81
2021/10/08 02:38:38;;;;;;;31.38;4.90;;;;;;;0.54;88.34;102578.34;4862136;29;20068;-80
2021/10/08 02:41:04;;;;;;;4.45;4.25;;;;;;;0.70;88.77;102580.53;4862172;29;20052;-80
2021/10/08 02:43:30;;;;;;;4.97;4.30;;;;;;;0.76;88.49;102577.25;4861813;29;20078;-80
2021/10/08 02:45:56;;;;;;;8.38;6.03;;;;;;;0.73;88.24;102580.59;4831947;29;20056;-81
2021/10/08 02:48:22;;;;;;;7.05;6.47;;;;;;;0.64;87.90;102575.22;4864099;29;20053;-80
2021/10/08 02:50:48;;;;;;;5.30;4.82;;;;;;;0.55;88.23;102580.09;4848406;29;20431;-79
2021/10/08 02:53:14;;;;;;;4.60;4.25;;;;;;;0.39;88.07;102578.72;4862471;29;20057;-80
2021/10/08 02:55:41;;;;;;;5.43;5.13;;;;;;;0.27;88.38;102577.47;4861942;29;20085;-81
2021/10/08 02:58:07;;;;;;;16.63;3.92;;;;;;;0.12;88.30;102577.91;4848095;29;20057;-80
2021/10/08 03:00:33;;;;;;;5.38;4.57;;;;;;;0.15;88.88;102574.53;4862638;29;20049;-81
2021/10/08 03:02:59;;;;;;;9.45;6.53;;;;;;;0.04;88.76;102579.34;4862219;29;20144;-80
2021/10/08 03:05:25;;;;;;;4.65;4.45;;;;;;;0.00;89.23;102578.38;4878598;29;20057;-81
2021/10/08 03:07:51;;;;;;;7.22;4.50;;;;;;;0.03;89.26;102572.47;4878577;29;20072;-80
2021/10/08 03:10:19;;;;;;;5.32;5.03;;;;;;;0.02;89.36;102581.00;4846756;29;20057;-81
2021/10/08 03:12:47;;;;;;;4.65;4.43;;;;;;;0.08;89.57;102580.31;4863511;29;20451;-81
2021/10/08 03:15:13;;;;;;;5.70;4.95;;;;;;;0.00;89.65;102580.94;4885049;29;20451;-81
2021/10/08 03:17:41;;;;;;;3.58;3.47;;;;;;;-0.12;89.83;102587.38;4868381;29;20057;-82
2021/10/08 03:20:08;;;;;;;5.03;4.82;;;;;;;-0.03;89.85;102557.72;4866111;29;20057;-81
2021/10/08 03:22:34;;;;;;;6.57;5.78;;;;;;;0.28;90.21;102574.97;4865934;29;20056;-81
2021/10/08 03:25:00;;;;;;;5.05;4.75;;;;;;;0.49;89.62;102574.75;4835326;29;20056;-82
2021/10/08 03:27:26;;;;;;;4.70;4.35;;;;;;;0.53;88.81;102584.28;4848643;29;20078;-81
2021/10/08 03:29:52;;;;;;;3.85;3.53;;;;;;;0.54;88.06;102586.03;4846268;29;20060;-81
2021/10/08 03:32:18;;;;;;;7.53;5.22;;;;;;;0.37;88.10;102577.81;4845968;29;20503;-82
2021/10/08 03:34:44;;;;;;;4.68;3.95;;;;;;;0.29;88.32;102591.25;4861608;29;20056;-81
2021/10/08 03:37:13;;;;;;;3.72;3.55;;;;;;;0.14;88.09;102590.75;4861634;29;20101;-82
2021/10/08 03:39:41;;;;;;;6.10;5.75;;;;;;;0.00;88.30;102583.50;4861609;29;20049;-81
2021/10/08 03:42:15;;;;;;;3.65;3.47;;;;;;;-0.07;88.40;102586.72;4861528;29;20072;-79
2021/10/08 03:44:43;;;;;;;3.70;3.60;;;;;;;-0.17;89.06;102600.06;4877644;29;20064;-81
2021/10/08 03:47:18;;;;;;;6.28;5.70;;;;;;;-0.26;89.13;102599.75;4878211;29;20045;-80
2021/10/08 03:49:44;;;;;;;5.13;4.78;;;;;;;-0.24;89.89;102599.81;4882858;29;20052;-81
2021/10/08 03:52:10;;;;;;;5.65;5.03;;;;;;;-0.31;89.50;102601.31;4883753;29;20087;-82
2021/10/08 03:54:36;;;;;;;3.25;3.00;;;;;;;-0.30;89.93;102597.91;4866856;29;20080;-81
2021/10/08 03:57:02;;;;;;;7.80;7.05;;;;;;;-0.15;89.88;102601.00;4879691;29;20040;-79
2021/10/08 03:59:29;;;;;;;3.40;3.17;;;;;;;-0.08;89.92;102599.50;4877496;29;20049;-79
2021/10/08 04:01:56;;;;;;;6.10;4.53;;;;;;;0.06;89.94;102602.50;4895472;29;20088;-80
2021/10/08 04:04:24;;;;;;;3.53;3.30;;;;;;;0.11;90.28;102604.41;4895555;29;20112;-81
2021/10/08 04:06:50;;;;;;;5.00;4.78;;;;;;;0.14;90.18;102606.19;4879342;29;20052;-79
2021/10/08 04:09:17;;;;;;;3.08;2.97;;;;;;;0.30;90.24;102609.28;4880649;29;20117;-82
2021/10/08 04:11:46;;;;;;;4.35;4.05;;;;;;;0.64;89.89;102616.34;4839477;29;20515;-82
2021/10/08 04:14:12;;;;;;;5.53;5.13;;;;;;;0.89;88.01;102607.63;4858406;29;20053;-81
2021/10/08 04:16:38;;;;;;;4.38;4.18;;;;;;;1.11;85.69;102610.00;4842946;29;20056;-82
2021/10/08 04:19:04;;;;;;;4.57;4.43;;;;;;;1.42;83.15;102607.44;4830073;29;20105;-83
2021/10/08 04:21:32;;;;;;;2.90;2.78;;;;;;;1.37;82.44;102608.16;4847568;29;20136;-81
2021/10/08 04:23:59;;;;;;;5.07;4.82;;;;;;;1.88;80.57;102609.47;4862427;29;20041;-82
2021/10/08 04:26:26;;;;;;;5.18;4.53;;;;;;;2.07;79.09;102606.53;4853382;29;20079;-81
2021/10/08 04:28:53;;;;;;;5.78;5.53;;;;;;;2.08;79.16;102605.69;4848154;29;20053;-83
2021/10/08 04:31:21;;;;;;;5.13;4.82;;;;;;;2.45;77.84;102602.28;4866409;29;20057;-82
2021/10/08 04:33:47;;;;;;;7.15;4.15;;;;;;;2.53;77.81;102602.41;4834379;29;20076;-82
2021/10/08 04:36:13;;;;;;;8.07;7.50;;;;;;;2.55;77.54;102611.09;4863286;29;20434;-82
2021/10/08 04:38:39;;;;;;;5.72;5.18;;;;;;;3.37;74.60;102612.78;4878859;29;20112;-81
2021/10/08 04:41:09;;;;;;;6.63;6.22;;;;;;;3.41;72.80;102610.25;4864244;29;20060;-83
2021/10/08 04:43:38;;;;;;;9.25;6.40;;;;;;;3.20;73.65;102609.00;4862334;29;20136;-82
2021/10/08 04:46:04;;;;;;;4.20;3.97;;;;;;;3.27;72.98;102600.53;4848682;29;20072;-82
2021/10/08 04:48:33;;;;;;;11.82;4.47;;;;;;;3.45;72.98;102606.03;4835048;29;20052;-83
2021/10/08 04:50:58;;;;;;;5.53;5.18;;;;;;;3.08;73.78;102605.31;4855488;29;20053;-83
2021/10/08 04:53:25;;;;;;;4.00;3.80;;;;;;;3.04;74.12;102606.09;4853725;29;20056;-83
2021/10/08 04:55:53;;;;;;;5.78;5.47;;;;;;;3.24;73.71;102601.31;4849618;29;20084;-84
2021/10/08 04:58:20;;;;;;;8.32;4.97;;;;;;;3.41;72.67;102599.06;4863343;29;20049;-84
2021/10/08 05:00:47;;;;;;;5.70;5.15;;;;;;;3.74;72.15;102599.66;4854608;29;20045;-83
2021/10/08 05:03:17;;;;;;;3.92;3.72;;;;;;;4.43;69.40;102609.38;4855569;29;20096;-83
2021/10/08 05:05:47;;;;;;;5.57;5.03;;;;;;;4.83;67.23;102601.34;4834391;29;20053;-85
2021/10/08 05:08:19;;;;;;;5.03;4.60;;;;;;;4.59;68.05;102607.06;4862499;29;20049;-82
2021/10/08 05:10:46;;;;;;;5.18;4.78;;;;;;;4.18;68.92;102609.03;4842140;29;20073;-81
2021/10/08 05:13:13;;;;;;;8.27;7.60;;;;;;;4.66;67.87;102610.59;4828417;29;20471;-82
2021/10/08 05:15:40;;;;;;;19.40;5.65;;;;;;;4.92;66.73;102614.38;4848831;29;20480;-81
2021/10/08 05:18:06;;;;;;;5.03;4.68;;;;;;;4.71;67.72;102617.56;4843927;29;20089;-81
2021/10/08 05:20:32;;;;;;;11.25;6.03;;;;;;;5.00;66.55;102607.59;4862989;29;20060;-80
2021/10/08 05:22:58;;;;;;;6.57;6.20;;;;;;;5.51;64.79;102609.91;4879055;29;20044;-82
2021/10/08 05:25:24;;;;;;;8.85;7.47;;;;;;;6.00;63.03;102600.88;4857528;29;20112;-81
2021/10/08 05:27:51;;;;;;;9.02;6.28;;;;;;;6.66;60.83;102594.41;4866587;29;20066;-82
2021/10/08 05:30:18;;;;;;;10.18;8.27;;;;;;;6.44;60.98;102593.44;4839826;29;20053;-83
2021/10/08 05:32:44;;;;;;;14.13;6.32;;;;;;;5.67;63.88;102597.94;4826740;29;20049;-81
2021/10/08 05:35:11;;;;;;;6.90;6.40;;;;;;;5.66;63.73;102597.06;4837752;29;20057;-82
2021/10/08 05:37:38;;;;;;;5.57;5.18;;;;;;;5.93;62.96;102606.00;4851791;29;20049;-84
2021/10/08 05:40:06;;;;;;;6.20;5.60;;;;;;;6.05;62.83;102609.53;4862794;29;20504;-83
2021/10/08 05:42:32;;;;;;;6.72;5.88;;;;;;;6.49;61.01;102596.03;4850083;29;20080;-82
2021/10/08 05:45:00;;;;;;;9.27;6.88;;;;;;;6.47;61.73;102603.81;4835304;29;20430;-84
2021/10/08 05:47:26;;;;;;;7.95;6.75;;;;;;;7.33;58.85;102596.38;4847346;29;20140;-82
2021/10/08 05:49:52;;;;;;;7.70;6.45;;;;;;;7.81;57.95;102605.16;4863355;29;20048;-82
2021/10/08 05:52:19;;;;;;;9.23;8.40;;;;;;;7.52;58.47;102597.31;4864996;29;20060;-82
2021/10/08 05:54:48;;;;;;;8.63;7.93;;;;;;;7.73;59.00;102606.84;4872267;29;20048;-85
2021/10/08 05:57:13;;;;;;;26.48;8.13;;;;;;;7.09;60.66;102606.72;4884727;29;20110;-83
2021/10/08 05:59:41;;;;;;;7.82;6.03;;;;;;;7.32;61.11;102609.41;4847899;29;20063;-80
2021/10/08 06:02:07;;;;;;;8.70;7.85;;;;;;;7.67;59.13;102606.84;4825967;29;20619;-81
2021/10/08 06:04:33;;;;;;;13.88;7.15;;;;;;;7.76;58.89;102607.72;4878333;29;20052;-79
2021/10/08 06:07:00;;;;;;;8.40;7.63;;;;;;;7.96;58.16;102599.94;4841961;29;20061;-81
2021/10/08 06:09:27;;;;;;;10.10;8.15;;;;;;;8.08;58.61;102599.09;4828394;29;20064;-82
2021/10/08 06:11:53;;;;;;;9.13;6.43;;;;;;;7.85;59.55;102609.50;4854760;29;20124;-83
2021/10/08 06:14:20;;;;;;;30.55;9.10;;;;;;;8.48;57.18;102608.59;4836369;29;20112;-81
2021/10/08 06:16:50;;;;;;;;;;;;;;;8.59;57.31;102605.97;4853820;29;20060;-81
2021/10/08 06:19:16;;;;;;;8.23;7.15;;;;;;;8.81;56.28;102602.44;4844205;29;20030;-83
2021/10/08 06:21:44;;;;;;;11.30;6.78;;;;;;;8.92;57.05;102590.25;4845446;29;20587;-81
2021/10/08 06:24:12;;;;;;;15.15;7.47;;;;;;;8.95;57.88;102608.47;4861403;29;20125;-83
2021/10/08 06:26:39;;;;;;;12.48;6.95;;;;;;;8.95;58.46;102605.88;4830405;29;20054;-85
2021/10/08 06:29:05;;;;;;;9.13;6.07;;;;;;;8.76;59.13;102614.63;4848973;29;20065;-83
2021/10/08 06:31:33;;;;;;;6.55;5.85;;;;;;;8.96;57.88;102611.94;4849018;29;20139;-84
2021/10/08 06:33:59;;;;;;;9.23;6.47;;;;;;;8.72;59.39;102612.88;4862524;29;20048;-86
2021/10/08 06:36:31;;;;;;;14.65;9.18;;;;;;;8.68;59.49;102611.16;4840887;29;20070;-85
2021/10/08 06:38:57;;;;;;;10.23;9.18;;;;;;;8.69;60.23;102613.78;4845335;29;20069;-87
2021/10/08 06:41:23;;;;;;;15.77;9.00;;;;;;;9.00;60.47;102605.84;4863158;29;20424;-85
2021/10/08 06:43:56;;;;;;;6.93;6.50;;;;;;;9.09;60.09;102611.91;4867156;29;20427;-83
2021/10/08 06:46:25;;;;;;;8.57;7.75;;;;;;;10.14;57.52;102601.66;4864521;29;20068;-81
2021/10/08 06:48:52;;;;;;;16.27;8.73;;;;;;;9.83;58.09;102602.75;4861305;29;20591;-83
2021/10/08 06:51:21;;;;;;;11.10;10.15;;;;;;;10.31;57.19;102599.72;4862818;29;20530;-82
2021/10/08 06:53:47;;;;;;;16.38;10.38;;;;;;;9.85;57.79;102600.97;4848156;29;20053;-82
2021/10/08 06:56:13;;;;;;;11.52;10.30;;;;;;;10.07;56.66;102596.47;4878721;29;20052;-81
2021/10/08 06:58:50;;;;;;;10.30;8.85;;;;;;;10.05;57.56;102611.25;4844717;29;20060;-82
2021/10/08 07:01:16;;;;;;;8.35;7.60;;;;;;;10.22;57.23;102597.22;4837075;29;20618;-80
2021/10/08 07:03:42;;;;;;;9.43;8.43;;;;;;;10.60;55.78;102609.03;4858987;29;20059;-82
2021/10/08 07:06:10;;;;;;;9.85;8.93;;;;;;;10.45;55.72;102603.09;4844502;29;20137;-82
2021/10/08 07:08:38;;;;;;;8.07;7.38;;;;;;;10.98;54.90;102601.63;4869194;29;20125;-83
2021/10/08 07:11:04;;;;;;;24.73;7.53;;;;;;;11.26;53.37;102602.97;4845145;29;20053;-81
2021/10/08 07:13:31;;;;;;;12.60;8.00;;;;;;;11.32;53.03;102597.66;4859625;29;20053;-81
2021/10/08 07:15:58;;;;;;;12.00;6.72;;;;;;;11.54;52.37;102597.38;4859703;29;20076;-82
2021/10/08 07:18:33;;;;;;;10.73;8.65;;;;;;;11.67;51.58;102598.91;4861309;29;20096;-83
2021/10/08 07:21:00;;;;;;;6.43;6.03;;;;;;;11.23;52.52;102605.63;4845683;29;20053;-82
2021/10/08 07:23:26;;;;;;;14.30;7.40;;;;;;;11.88;49.47;102604.69;4859472;29;20053;-81
2021/10/08 07:25:52;;;;;;;10.73;8.20;;;;;;;11.99;49.51;102587.06;4858207;29;20061;-81
2021/10/08 07:28:19;;;;;;;7.28;6.68;;;;;;;12.04;49.24;102599.22;4855695;29;20389;-81
2021/10/08 07:30:45;;;;;;;38.13;7.53;;;;;;;12.57;46.98;102593.88;4849640;29;20491;-84
2021/10/08 07:33:11;;;;;;;13.48;5.72;;;;;;;12.12;47.95;102599.94;4884128;29;20084;-81
2021/10/08 07:35:37;;;;;;;17.77;6.05;;;;;;;12.27;46.66;102607.56;4867093;29;20515;-85
2021/10/08 07:38:03;;;;;;;13.32;8.35;;;;;;;13.74;43.11;102594.88;4883361;29;20080;-82
2021/10/08 20:45:20;;;;;;;8.52;5.18;;;;;;;3.68;72.86;102305.97;4820336;29;20061;-77
2021/10/08 20:47:47;;;;;;;11.52;8.77;;;;;;;3.65;73.52;102311.09;4821179;29;20085;-77
2021/10/08 20:50:13;;;;;;;9.40;7.90;;;;;;;3.68;72.99;102297.34;4821804;29;20115;-77
2021/10/08 20:52:41;;;;;;;47.72;7.95;;;;;;;3.67;73.10;102303.34;4821696;29;20062;-78
2021/10/08 20:55:07;;;;;;;7.97;4.35;;;;;;;3.62;73.33;102311.06;4804493;29;20066;-76
2021/10/08 20:57:34;;;;;;;7.30;6.60;;;;;;;3.57;73.54;102306.66;4821052;29;20053;-78
2021/10/08 21:00:00;;;;;;;8.00;7.50;;;;;;;3.36;75.06;102311.53;4803603;29;20436;-77
2021/10/08 21:02:26;;;;;;;17.80;4.82;;;;;;;3.05;78.01;102311.09;4821416;29;20156;-77
2021/10/08 21:04:52;;;;;;;10.07;6.38;;;;;;;2.77;79.77;102305.47;4826803;29;20058;-77
2021/10/08 21:07:19;;;;;;;5.75;5.30;;;;;;;2.53;80.02;102305.91;4820888;29;20061;-78
2021/10/08 21:09:45;;;;;;;4.40;4.20;;;;;;;2.44;80.38;102305.75;4821097;29;20054;-77
2021/10/08 21:12:11;;;;;;;5.22;4.90;;;;;;;2.48;80.10;102302.41;4821068;29;20433;-76
2021/10/08 21:14:38;;;;;;;8.32;6.55;;;;;;;2.42;79.56;102294.56;4820976;29;20085;-78
2021/10/08 21:17:04;;;;;;;6.45;6.10;;;;;;;2.49;79.38;102297.25;4834710;29;20418;-77
2021/10/08 21:19:30;;;;;;;11.32;6.55;;;;;;;2.46;79.31;102294.63;4820938;29;20064;-76
2021/10/08 21:21:56;;;;;;;7.53;6.80;;;;;;;2.34;79.73;102298.72;4804478;29;20133;-77
2021/10/08 21:24:22;;;;;;;5.65;5.30;;;;;;;2.28;79.98;102302.06;4820724;29;20061;-76
2021/10/08 21:26:48;;;;;;;14.35;6.35;;;;;;;2.40;79.83;102298.81;4804268;29;20415;-76
2021/10/08 21:29:14;;;;;;;5.30;4.93;;;;;;;2.35;80.12;102300.44;4820781;29;20544;-76
2021/10/08 21:31:41;;;;;;;5.22;4.22;;;;;;;2.46;79.85;102293.75;4820668;29;20050;-77
2021/10/08 21:34:07;;;;;;;7.38;6.75;;;;;;;2.52;79.09;102299.06;4820734;29;20137;-77
2021/10/08 21:36:35;;;;;;;9.60;6.53;;;;;;;2.40;79.86;102289.38;4820972;29;20077;-76
2021/10/08 21:39:07;;;;;;;13.15;6.35;;;;;;;2.48;79.42;102295.53;4820661;29;20058;-76
2021/10/08 21:44:08;;;;;;;5.28;4.88;;;;;;;2.55;79.72;102304.25;4808875;29;20504;-78
2021/10/08 21:46:34;;;;;;;5.88;5.53;;;;;;;2.45;80.44;102299.78;4822277;29;20065;-78
2021/10/08 21:49:00;;;;;;;7.88;7.13;;;;;;;2.32;80.68;102298.69;4838733;29;20508;-77
2021/10/08 21:51:26;;;;;;;21.05;8.90;;;;;;;2.24;80.89;102300.25;4822403;29;20061;-76
2021/10/08 21:53:53;;;;;;;5.15;4.38;;;;;;;2.20;80.91;102295.00;4838523;29;20091;-77
2021/10/08 21:56:18;;;;;;;6.22;5.80;;;;;;;2.27;80.80;102289.13;4822536;29;20053;-77
2021/10/08 21:58:44;;;;;;;7.38;6.97;;;;;;;2.36;79.88;102300.47;4822208;29;20542;-76
2021/10/08 22:01:30;;;;;;;8.68;5.78;;;;;;;2.36;79.85;102294.44;4822771;29;20087;-76
2021/10/08 22:04:05;;;;;;;8.90;5.60;;;;;;;2.37;79.00;102296.19;4822481;29;20046;-77
2021/10/08 22:06:31;;;;;;;4.78;4.47;;;;;;;2.35;79.23;102293.59;4839423;29;20114;-75
2021/10/08 22:08:57;;;;;;;8.00;6.00;;;;;;;2.36;78.88;102291.84;4822776;29;20065;-76
2021/10/08 22:11:23;;;;;;;5.50;5.00;;;;;;;2.21;79.03;102289.00;4839178;29;20465;-77
2021/10/08 22:13:49;;;;;;;5.60;5.22;;;;;;;2.18;79.38;102294.13;4822829;29;20057;-76
2021/10/08 22:16:16;;;;;;;13.73;5.95;;;;;;;2.11;79.95;102293.13;4847784;29;20202;-76
2021/10/08 22:18:50;;;;;;;5.10;4.70;;;;;;;2.11;79.99;102293.13;4834207;29;20062;-77
2021/10/08 22:21:20;;;;;;;6.38;5.88;;;;;;;2.07;80.17;102291.31;4854778;29;20066;-76
2021/10/08 22:23:52;;;;;;;7.00;6.40;;;;;;;2.05;80.58;102290.44;4845159;29;20064;-77
2021/10/08 22:34:10;;;;;;;20.23;7.70;;;;;;;1.98;80.96;102284.31;4841871;29;20052;-76
2021/10/08 22:36:36;;;;;;;9.30;5.70;;;;;;;1.94;80.61;102284.22;4841528;29;20054;-76
2021/10/08 22:39:02;;;;;;;9.90;5.82;;;;;;;1.75;81.22;102285.56;4841509;29;20050;-76
2021/10/08 22:41:28;;;;;;;6.05;5.68;;;;;;;1.69;81.10;102288.00;4841743;29;20167;-76
2021/10/08 22:43:54;;;;;;;9.80;8.18;;;;;;;1.71;81.80;102283.75;4828953;29;20185;-76
2021/10/08 22:46:21;;;;;;;7.70;6.75;;;;;;;1.66;81.90;102284.50;4860242;29;20545;-76
2021/10/08 22:48:47;;;;;;;20.77;6.40;;;;;;;1.79;82.30;102279.63;4858615;29;20057;-76
2021/10/08 22:51:13;;;;;;;13.98;8.45;;;;;;;1.89;81.70;102278.09;4860022;29;20591;-76
2021/10/08 22:53:39;;;;;;;7.45;7.00;;;;;;;1.89;81.41;102276.41;4843063;29;20054;-77
2021/10/08 22:56:05;;;;;;;5.28;4.50;;;;;;;1.79;81.67;102283.91;4860043;29;20404;-77
2021/10/08 22:58:31;;;;;;;10.25;7.32;;;;;;;1.69;81.78;102282.88;4843097;29;20045;-76
2021/10/08 23:00:57;;;;;;;7.25;6.70;;;;;;;1.70;82.26;102284.63;4859485;29;20053;-77
2021/10/08 23:03:23;;;;;;;8.05;5.57;;;;;;;1.65;82.26;102282.75;4859720;29;20061;-75
2021/10/08 23:05:52;;;;;;;8.98;5.65;;;;;;;1.81;82.01;102283.09;4842839;29;20088;-76
2021/10/08 23:08:30;;;;;;;14.43;7.38;;;;;;;2.03;81.04;102282.66;4859536;29;20617;-76
2021/10/08 23:10:59;;;;;;;5.68;5.30;;;;;;;2.09;81.05;102282.78;4859263;29;20136;-77
2021/10/08 23:15:54;;;;;;;9.45;6.90;;;;;;;1.95;81.08;102281.69;4843231;29;20129;-77
2021/10/08 23:18:20;;;;;;;9.27;8.43;;;;;;;1.92;81.28;102276.47;4842861;29;20516;-77
2021/10/08 23:20:47;;;;;;;6.43;5.93;;;;;;;1.98;81.37;102276.56;4842964;29;20052;-77
2021/10/08 23:23:12;;;;;;;8.00;6.18;;;;;;;1.98;81.62;102276.56;4859373;29;20623;-76
2021/10/08 23:25:39;;;;;;;10.32;8.98;;;;;;;1.78;81.60;102267.59;4842510;29;20045;-78
2021/10/08 23:28:04;;;;;;;6.55;5.93;;;;;;;1.72;81.75;102274.31;4859241;29;20153;-77
2021/10/08 23:30:30;;;;;;;5.82;5.30;;;;;;;1.70;81.89;102281.16;4827696;29;20076;-75
2021/10/08 23:32:57;;;;;;;8.75;7.65;;;;;;;1.66;82.56;102275.06;4857711;29;20126;-75
2021/10/08 23:35:23;;;;;;;7.97;7.38;;;;;;;1.67;82.83;102284.50;4827528;29;20042;-78
2021/10/08 23:37:49;;;;;;;11.98;7.72;;;;;;;1.62;82.69;102278.41;4842133;29;20056;-78
2021/10/08 23:40:15;;;;;;;4.80;4.53;;;;;;;1.59;82.72;102270.63;4858945;29;20838;-77
2021/10/08 23:42:41;;;;;;;8.82;8.13;;;;;;;1.54;82.97;102273.09;4858972;29;20057;-78
2021/10/08 23:45:07;;;;;;;16.50;6.13;;;;;;;1.47;83.00;102276.38;4858823;29;20050;-77
2021/10/08 23:47:33;;;;;;;8.57;7.95;;;;;;;1.47;82.96;102270.41;4827125;29;20066;-77
2021/10/08 23:49:59;;;;;;;7.55;6.78;;;;;;;1.36;82.83;102272.72;4858556;29;20049;-76
2021/10/08 23:52:25;;;;;;;7.03;6.47;;;;;;;1.35;82.99;102270.09;4827203;29;20432;-76
2021/10/08 23:54:51;;;;;;;6.68;6.38;;;;;;;1.31;82.86;102271.75;4842017;29;20102;-76
2021/10/08 23:57:17;;;;;;;9.75;7.15;;;;;;;1.24;83.10;102269.91;4859172;29;20066;-77
2021/10/08 23:59:43;;;;;;;8.55;6.30;;;;;;;1.19;83.54;102268.03;4841811;29;20520;-76
